createdAt,value
2019-03-15T00:00:30.250Z,6.50
2019-03-15T00:01:39.480Z,6.50
2019-03-15T00:02:46.769Z,6.50
2019-03-15T00:03:54.003Z,6.50
2019-03-15T00:05:01.220Z,6.40
2019-03-15T00:06:08.439Z,6.40
2019-03-15T00:07:15.698Z,6.40
2019-03-15T00:08:22.890Z,6.40
2019-03-15T00:09:30.095Z,6.40
2019-03-15T00:10:37.346Z,6.40
2019-03-15T00:11:44.569Z,6.40
2019-03-15T00:12:51.777Z,6.40
2019-03-15T00:13:59.005Z,6.40
2019-03-15T00:15:07.054Z,6.40
2019-03-15T00:16:14.266Z,6.40
2019-03-15T00:17:21.523Z,6.40
2019-03-15T00:18:28.735Z,6.40
2019-03-15T00:19:35.956Z,6.40
2019-03-15T00:20:43.178Z,6.40
2019-03-15T00:21:50.396Z,6.40
2019-03-15T00:22:57.634Z,6.40
2019-03-15T00:24:04.859Z,6.40
2019-03-15T00:25:12.087Z,6.40
2019-03-15T00:26:19.341Z,6.40
2019-03-15T00:27:26.599Z,6.40
2019-03-15T00:28:33.839Z,6.40
2019-03-15T00:29:41.275Z,6.40
2019-03-15T00:30:48.469Z,6.40
2019-03-15T00:31:55.664Z,6.50
2019-03-15T00:33:02.875Z,6.40
2019-03-15T00:34:10.100Z,6.50
2019-03-15T00:35:17.312Z,6.40
2019-03-15T00:36:24.569Z,6.40
2019-03-15T00:37:31.779Z,6.50
2019-03-15T00:38:39.003Z,6.50
2019-03-15T00:39:46.231Z,6.50
2019-03-15T00:40:53.425Z,6.50
2019-03-15T00:42:00.653Z,6.50
2019-03-15T00:43:07.906Z,6.50
2019-03-15T00:44:15.117Z,6.50
2019-03-15T00:45:22.327Z,6.50
2019-03-15T00:46:29.526Z,6.50
2019-03-15T00:47:36.783Z,6.50
2019-03-15T00:48:43.992Z,6.50
2019-03-15T00:49:51.201Z,6.50
2019-03-15T00:50:58.440Z,6.50
2019-03-15T00:52:07.090Z,6.50
2019-03-15T00:53:14.302Z,6.50
2019-03-15T00:54:21.497Z,6.50
2019-03-15T00:55:28.709Z,6.50
2019-03-15T00:56:35.933Z,6.50
2019-03-15T00:57:43.160Z,6.50
2019-03-15T00:58:50.369Z,6.50
2019-03-15T00:59:57.611Z,6.50
2019-03-15T01:01:04.836Z,6.50
2019-03-15T01:02:12.082Z,6.50
2019-03-15T01:03:19.292Z,6.50
2019-03-15T01:04:26.528Z,6.50
2019-03-15T01:05:33.748Z,6.50
2019-03-15T01:06:40.955Z,6.50
2019-03-15T01:07:48.280Z,6.50
2019-03-15T01:08:55.493Z,6.50
2019-03-15T01:10:02.731Z,6.50
2019-03-15T01:11:10.054Z,6.50
2019-03-15T01:12:17.259Z,6.50
2019-03-15T01:13:24.468Z,6.50
2019-03-15T01:14:31.695Z,6.40
2019-03-15T01:15:38.875Z,6.40
2019-03-15T01:16:46.074Z,6.40
2019-03-15T01:17:53.282Z,6.40
2019-03-15T01:19:00.509Z,6.40
2019-03-15T01:20:07.853Z,6.40
2019-03-15T01:21:15.093Z,6.40
2019-03-15T01:22:23.159Z,6.40
2019-03-15T01:23:30.970Z,6.40
2019-03-15T01:24:38.226Z,6.40
2019-03-15T01:25:45.420Z,6.40
2019-03-15T01:26:52.647Z,6.40
2019-03-15T01:27:59.842Z,6.40
2019-03-15T01:29:07.054Z,6.40
2019-03-15T01:30:14.298Z,6.40
2019-03-15T01:31:21.521Z,6.40
2019-03-15T01:32:28.835Z,6.40
2019-03-15T01:33:36.121Z,6.40
2019-03-15T01:34:43.332Z,6.40
2019-03-15T01:35:50.597Z,6.40
2019-03-15T01:36:57.843Z,6.40
2019-03-15T01:38:05.169Z,6.40
2019-03-15T01:39:12.475Z,6.30
2019-03-15T01:40:19.702Z,6.30
2019-03-15T01:41:26.956Z,6.30
2019-03-15T01:42:34.177Z,6.30
2019-03-15T01:43:41.407Z,6.30
2019-03-15T01:44:48.634Z,6.30
2019-03-15T01:45:55.859Z,6.30
2019-03-15T01:47:03.072Z,6.30
2019-03-15T01:48:10.296Z,6.30
2019-03-15T01:49:17.553Z,6.30
2019-03-15T01:50:24.776Z,6.30
2019-03-15T01:51:32.033Z,6.30
2019-03-15T01:52:39.244Z,6.30
2019-03-15T01:53:46.468Z,6.20
2019-03-15T01:54:54.654Z,6.30
2019-03-15T01:56:01.890Z,6.20
2019-03-15T01:57:09.182Z,6.20
2019-03-15T01:58:16.376Z,6.20
2019-03-15T01:59:23.618Z,6.20
2019-03-15T02:00:30.817Z,6.20
2019-03-15T02:01:38.039Z,6.20
2019-03-15T02:02:45.266Z,6.20
2019-03-15T02:03:52.508Z,6.20
2019-03-15T02:04:59.703Z,6.10
2019-03-15T02:06:06.914Z,6.10
2019-03-15T02:07:14.161Z,6.10
2019-03-15T02:08:21.379Z,6.10
2019-03-15T02:09:28.648Z,6.10
2019-03-15T02:10:37.465Z,6.10
2019-03-15T02:11:45.756Z,6.10
2019-03-15T02:12:52.971Z,6.10
2019-03-15T02:14:00.209Z,6.10
2019-03-15T02:15:08.350Z,6.10
2019-03-15T02:16:15.557Z,6.10
2019-03-15T02:17:22.784Z,6.10
2019-03-15T02:18:30.002Z,6.00
2019-03-15T02:19:37.221Z,6.00
2019-03-15T02:20:44.461Z,6.00
2019-03-15T02:21:51.671Z,6.00
2019-03-15T02:22:58.882Z,6.00
2019-03-15T02:24:06.201Z,6.00
2019-03-15T02:25:13.427Z,6.10
2019-03-15T02:26:21.699Z,6.00
2019-03-15T02:27:29.444Z,6.00
2019-03-15T02:28:36.742Z,6.10
2019-03-15T02:29:44.083Z,6.00
2019-03-15T02:30:51.434Z,6.10
2019-03-15T02:31:58.655Z,6.10
2019-03-15T02:33:06.219Z,6.10
2019-03-15T02:34:13.751Z,6.10
2019-03-15T02:35:20.998Z,6.10
2019-03-15T02:36:28.367Z,6.10
2019-03-15T02:37:35.563Z,6.10
2019-03-15T02:38:42.759Z,6.10
2019-03-15T02:39:50.125Z,6.10
2019-03-15T02:40:57.360Z,6.10
2019-03-15T02:42:05.668Z,6.20
2019-03-15T02:43:13.013Z,6.20
2019-03-15T02:44:20.208Z,6.20
2019-03-15T02:45:28.528Z,6.20
2019-03-15T02:46:35.790Z,6.20
2019-03-15T02:47:42.968Z,6.30
2019-03-15T02:48:50.228Z,6.20
2019-03-15T02:49:57.445Z,6.30
2019-03-15T02:51:06.172Z,6.30
2019-03-15T02:52:13.389Z,6.30
2019-03-15T02:53:21.693Z,6.30
2019-03-15T02:54:28.918Z,6.30
2019-03-15T02:55:36.155Z,6.30
2019-03-15T02:56:43.389Z,6.30
2019-03-15T02:57:50.598Z,6.40
2019-03-15T02:58:58.898Z,6.40
2019-03-15T03:00:06.830Z,6.40
2019-03-15T03:01:14.056Z,6.40
2019-03-15T03:02:22.390Z,6.40
2019-03-15T03:03:31.581Z,6.40
2019-03-15T03:04:40.911Z,6.50
2019-03-15T03:05:48.526Z,6.50
2019-03-15T03:06:55.734Z,6.50
2019-03-15T03:08:02.958Z,6.50
2019-03-15T03:09:10.215Z,6.50
2019-03-15T03:10:18.510Z,6.50
2019-03-15T03:11:25.764Z,6.50
2019-03-15T03:12:32.977Z,6.50
2019-03-15T03:13:40.215Z,6.50
2019-03-15T03:14:47.545Z,6.60
2019-03-15T03:15:54.807Z,6.60
2019-03-15T03:17:02.059Z,6.60
2019-03-15T03:18:09.312Z,6.60
2019-03-15T03:19:16.531Z,6.60
2019-03-15T03:20:25.002Z,6.60
2019-03-15T03:21:33.333Z,6.60
2019-03-15T03:22:40.540Z,6.60
2019-03-15T03:23:47.841Z,6.70
2019-03-15T03:24:55.052Z,6.60
2019-03-15T03:26:02.336Z,6.60
2019-03-15T03:27:09.538Z,6.70
2019-03-15T03:28:16.750Z,6.70
2019-03-15T03:29:23.965Z,6.70
2019-03-15T03:30:32.173Z,6.70
2019-03-15T03:31:39.397Z,6.70
2019-03-15T03:32:46.667Z,6.70
2019-03-15T03:33:53.893Z,6.70
2019-03-15T03:35:01.194Z,6.70
2019-03-15T03:36:08.434Z,6.70
2019-03-15T03:37:15.649Z,6.70
2019-03-15T03:38:22.893Z,6.70
2019-03-15T03:39:30.157Z,6.70
2019-03-15T03:40:37.748Z,6.70
2019-03-15T03:41:44.994Z,6.70
2019-03-15T03:42:52.209Z,6.70
2019-03-15T03:43:59.433Z,6.80
2019-03-15T03:45:06.779Z,6.70
2019-03-15T03:46:15.072Z,6.70
2019-03-15T03:47:22.318Z,6.70
2019-03-15T03:48:29.509Z,6.70
2019-03-15T03:49:36.738Z,6.70
2019-03-15T03:50:43.932Z,6.70
2019-03-15T03:51:51.169Z,6.70
2019-03-15T03:53:00.646Z,6.70
2019-03-15T03:54:07.860Z,6.70
2019-03-15T03:55:15.126Z,6.80
2019-03-15T03:56:22.354Z,6.80
2019-03-15T03:57:29.698Z,6.80
2019-03-15T03:58:36.938Z,6.80
2019-03-15T03:59:45.485Z,6.80
2019-03-15T04:00:52.745Z,6.80
2019-03-15T04:01:59.985Z,6.80
2019-03-15T04:03:07.208Z,6.80
2019-03-15T04:04:15.904Z,6.80
2019-03-15T04:05:23.354Z,6.80
2019-03-15T04:06:30.656Z,6.80
2019-03-15T04:07:38.082Z,6.80
2019-03-15T04:08:45.407Z,6.80
2019-03-15T04:09:52.647Z,6.80
2019-03-15T04:10:59.859Z,6.80
2019-03-15T04:12:07.103Z,6.80
2019-03-15T04:13:14.347Z,6.80
2019-03-15T04:14:21.557Z,6.80
2019-03-15T04:15:28.822Z,6.80
2019-03-15T04:16:36.083Z,6.80
2019-03-15T04:17:43.304Z,6.80
2019-03-15T04:18:50.546Z,6.80
2019-03-15T04:19:57.769Z,6.90
2019-03-15T04:21:05.199Z,6.90
2019-03-15T04:22:12.414Z,6.90
2019-03-15T04:23:19.662Z,6.90
2019-03-15T04:24:26.893Z,6.90
2019-03-15T04:25:34.185Z,6.80
2019-03-15T04:26:41.424Z,6.90
2019-03-15T04:27:48.680Z,6.90
2019-03-15T04:28:57.119Z,6.80
2019-03-15T04:30:04.802Z,6.80
2019-03-15T04:31:12.022Z,6.80
2019-03-15T04:32:19.249Z,6.80
2019-03-15T04:33:26.445Z,6.80
2019-03-15T04:34:33.707Z,6.80
2019-03-15T04:35:40.881Z,6.80
2019-03-15T04:36:48.091Z,6.80
2019-03-15T04:37:55.332Z,6.80
2019-03-15T04:39:05.184Z,6.80
2019-03-15T04:40:12.546Z,6.80
2019-03-15T04:41:19.816Z,6.80
2019-03-15T04:42:27.057Z,6.80
2019-03-15T04:43:34.329Z,6.70
2019-03-15T04:44:41.539Z,6.70
2019-03-15T04:45:48.748Z,6.70
2019-03-15T04:46:55.974Z,6.70
2019-03-15T04:48:03.200Z,6.70
2019-03-15T04:49:10.443Z,6.80
2019-03-15T04:50:17.667Z,6.70
2019-03-15T04:51:24.877Z,6.70
2019-03-15T04:52:32.073Z,6.70
2019-03-15T04:53:39.284Z,6.70
2019-03-15T04:54:46.510Z,6.70
2019-03-15T04:55:53.705Z,6.70
2019-03-15T04:57:00.930Z,6.70
2019-03-15T04:58:08.158Z,6.70
2019-03-15T04:59:15.427Z,6.70
2019-03-15T05:00:23.751Z,6.70
2019-03-15T05:01:32.098Z,6.70
2019-03-15T05:02:39.326Z,6.70
2019-03-15T05:03:46.566Z,6.70
2019-03-15T05:04:54.856Z,6.70
2019-03-15T05:06:03.819Z,6.70
2019-03-15T05:07:11.049Z,6.70
2019-03-15T05:08:19.371Z,6.70
2019-03-15T05:09:26.597Z,6.70
2019-03-15T05:10:33.820Z,6.80
2019-03-15T05:11:41.031Z,6.70
2019-03-15T05:12:49.340Z,6.80
2019-03-15T05:13:58.813Z,6.80
2019-03-15T05:15:07.408Z,6.80
2019-03-15T05:16:14.676Z,6.80
2019-03-15T05:17:21.902Z,6.80
2019-03-15T05:18:29.128Z,6.80
2019-03-15T05:19:36.383Z,6.80
2019-03-15T05:20:43.594Z,6.80
2019-03-15T05:21:50.790Z,6.80
2019-03-15T05:22:58.030Z,6.80
2019-03-15T05:24:05.470Z,6.80
2019-03-15T05:25:12.721Z,6.80
2019-03-15T05:26:19.948Z,6.80
2019-03-15T05:27:27.157Z,6.80
2019-03-15T05:28:34.384Z,6.80
2019-03-15T05:29:41.594Z,6.80
2019-03-15T05:30:48.884Z,6.80
2019-03-15T05:31:56.130Z,6.90
2019-03-15T05:33:03.351Z,6.90
2019-03-15T05:34:10.564Z,6.90
2019-03-15T05:35:17.773Z,6.90
2019-03-15T05:36:24.998Z,6.90
2019-03-15T05:37:32.194Z,6.90
2019-03-15T05:38:39.405Z,6.90
2019-03-15T05:39:46.631Z,6.90
2019-03-15T05:40:54.503Z,6.90
2019-03-15T05:42:02.703Z,6.90
2019-03-15T05:43:09.917Z,6.90
2019-03-15T05:44:17.173Z,6.90
2019-03-15T05:45:24.429Z,6.90
2019-03-15T05:46:31.667Z,7.00
2019-03-15T05:47:38.878Z,7.00
2019-03-15T05:48:46.120Z,7.00
2019-03-15T05:49:55.130Z,6.90
2019-03-15T05:51:02.494Z,7.00
2019-03-15T05:52:09.718Z,7.00
2019-03-15T05:53:16.958Z,7.00
2019-03-15T05:54:24.169Z,7.00
2019-03-15T05:55:31.424Z,7.00
2019-03-15T05:56:38.650Z,7.00
2019-03-15T05:57:45.891Z,7.00
2019-03-15T05:58:53.267Z,7.00
2019-03-15T06:00:00.450Z,7.00
2019-03-15T06:01:07.719Z,7.00
2019-03-15T06:02:14.924Z,7.00
2019-03-15T06:03:22.126Z,7.00
2019-03-15T06:04:29.416Z,7.00
2019-03-15T06:05:36.653Z,7.00
2019-03-15T06:06:43.894Z,7.00
2019-03-15T06:07:51.231Z,7.00
2019-03-15T06:08:58.490Z,7.00
2019-03-15T06:10:06.351Z,7.10
2019-03-15T06:11:13.592Z,7.10
2019-03-15T06:12:20.794Z,7.10
2019-03-15T06:13:28.030Z,7.10
2019-03-15T06:14:35.424Z,7.10
2019-03-15T06:15:42.616Z,7.10
2019-03-15T06:16:49.887Z,7.10
2019-03-15T06:17:57.098Z,7.10
2019-03-15T06:19:04.384Z,7.10
2019-03-15T06:20:12.136Z,7.20
2019-03-15T06:21:19.361Z,7.10
2019-03-15T06:22:26.557Z,7.10
2019-03-15T06:23:33.891Z,7.10
2019-03-15T06:24:41.356Z,7.20
2019-03-15T06:25:48.551Z,7.20
2019-03-15T06:26:55.765Z,7.20
2019-03-15T06:28:02.958Z,7.20
2019-03-15T06:29:11.249Z,7.20
2019-03-15T06:30:18.520Z,7.20
2019-03-15T06:31:25.760Z,7.20
2019-03-15T06:32:32.980Z,7.20
2019-03-15T06:33:40.215Z,7.20
2019-03-15T06:34:47.423Z,7.20
2019-03-15T06:35:54.646Z,7.20
2019-03-15T06:37:01.922Z,7.20
2019-03-15T06:38:09.132Z,7.20
2019-03-15T06:39:16.335Z,7.20
2019-03-15T06:40:23.541Z,7.20
2019-03-15T06:41:30.765Z,7.30
2019-03-15T06:42:37.963Z,7.20
2019-03-15T06:43:45.191Z,7.20
2019-03-15T06:44:57.748Z,7.30
2019-03-15T06:46:01.334Z,7.30
2019-03-15T06:47:08.594Z,7.30
2019-03-15T06:48:15.842Z,7.30
2019-03-15T06:49:23.045Z,7.30
2019-03-15T06:50:30.271Z,7.30
2019-03-15T06:51:37.569Z,7.30
2019-03-15T06:52:44.797Z,7.30
2019-03-15T06:53:51.991Z,7.30
2019-03-15T06:54:59.952Z,7.30
2019-03-15T06:56:07.284Z,7.30
2019-03-15T06:57:15.184Z,7.30
2019-03-15T06:58:22.395Z,7.30
2019-03-15T06:59:29.607Z,7.30
2019-03-15T07:00:36.848Z,7.30
2019-03-15T07:01:44.090Z,7.40
2019-03-15T07:02:51.343Z,7.40
2019-03-15T07:03:58.529Z,7.40
2019-03-15T07:05:06.758Z,7.40
2019-03-15T07:06:14.594Z,7.40
2019-03-15T07:07:21.802Z,7.40
2019-03-15T07:08:29.095Z,7.40
2019-03-15T07:09:36.307Z,7.40
2019-03-15T07:10:44.358Z,7.40
2019-03-15T07:11:51.754Z,7.40
2019-03-15T07:12:58.929Z,7.40
2019-03-15T07:14:06.155Z,7.40
2019-03-15T07:15:13.816Z,7.40
2019-03-15T07:16:21.045Z,7.40
2019-03-15T07:17:28.356Z,7.40
2019-03-15T07:18:35.758Z,7.40
2019-03-15T07:19:43.050Z,7.40
2019-03-15T07:20:50.283Z,7.40
2019-03-15T07:21:57.547Z,7.40
2019-03-15T07:23:04.788Z,7.40
2019-03-15T07:24:24.470Z,7.40
2019-03-15T07:25:20.925Z,7.40
2019-03-15T07:26:28.150Z,7.40
2019-03-15T07:27:35.373Z,7.40
2019-03-15T07:28:42.587Z,7.40
2019-03-15T07:29:49.828Z,7.40
2019-03-15T07:30:57.039Z,7.40
2019-03-15T07:32:04.277Z,7.40
2019-03-15T07:33:11.563Z,7.40
2019-03-15T07:34:18.775Z,7.40
2019-03-15T07:35:26.016Z,7.50
2019-03-15T07:36:33.226Z,7.40
2019-03-15T07:37:40.489Z,7.40
2019-03-15T07:38:47.723Z,7.40
2019-03-15T07:39:54.935Z,7.40
2019-03-15T07:41:02.189Z,7.40
2019-03-15T07:42:09.402Z,7.50
2019-03-15T07:43:19.819Z,7.40
2019-03-15T07:44:25.600Z,7.40
2019-03-15T07:45:32.808Z,7.50
2019-03-15T07:46:40.181Z,7.50
2019-03-15T07:47:47.381Z,7.50
2019-03-15T07:48:54.578Z,7.50
2019-03-15T07:50:01.845Z,7.50
2019-03-15T07:51:09.266Z,7.50
2019-03-15T07:52:16.492Z,7.50
2019-03-15T07:53:23.702Z,7.50
2019-03-15T07:54:38.060Z,7.50
2019-03-15T07:55:39.930Z,7.50
2019-03-15T07:56:47.137Z,7.50
2019-03-15T07:57:54.347Z,7.50
2019-03-15T07:59:01.558Z,7.50
2019-03-15T08:00:09.580Z,7.50
2019-03-15T08:01:16.806Z,7.50
2019-03-15T08:02:24.002Z,7.50
2019-03-15T08:03:31.263Z,7.50
2019-03-15T08:04:38.470Z,7.50
2019-03-15T08:05:45.695Z,7.50
2019-03-15T08:06:53.521Z,7.60
2019-03-15T08:08:00.778Z,7.50
2019-03-15T08:09:09.250Z,7.60
2019-03-15T08:10:16.513Z,7.60
2019-03-15T08:11:23.746Z,7.60
2019-03-15T08:12:30.973Z,7.60
2019-03-15T08:13:38.172Z,7.60
2019-03-15T08:14:45.394Z,7.60
2019-03-15T08:15:52.651Z,7.60
2019-03-15T08:16:59.863Z,7.60
2019-03-15T08:18:07.104Z,7.60
2019-03-15T08:19:14.419Z,7.60
2019-03-15T08:20:21.630Z,7.60
2019-03-15T08:21:28.872Z,7.60
2019-03-15T08:22:36.083Z,7.60
2019-03-15T08:23:43.293Z,7.60
2019-03-15T08:24:51.825Z,7.60
2019-03-15T08:25:59.261Z,7.60
2019-03-15T08:27:06.564Z,7.60
2019-03-15T08:28:13.776Z,7.60
2019-03-15T08:29:21.121Z,7.60
2019-03-15T08:30:28.315Z,7.60
2019-03-15T08:31:36.606Z,7.60
2019-03-15T08:32:44.326Z,7.60
2019-03-15T08:33:51.899Z,7.60
2019-03-15T08:34:59.149Z,7.60
2019-03-15T08:36:06.377Z,7.60
2019-03-15T08:37:13.623Z,7.60
2019-03-15T08:38:20.837Z,7.60
2019-03-15T08:39:28.074Z,7.60
2019-03-15T08:40:35.305Z,7.60
2019-03-15T08:41:42.539Z,7.70
2019-03-15T08:42:49.738Z,7.60
2019-03-15T08:43:56.918Z,7.70
2019-03-15T08:45:04.475Z,7.60
2019-03-15T08:46:11.776Z,7.60
2019-03-15T08:47:21.762Z,7.60
2019-03-15T08:48:31.955Z,7.70
2019-03-15T08:49:38.677Z,7.60
2019-03-15T08:50:46.861Z,7.70
2019-03-15T08:52:03.328Z,7.70
2019-03-15T08:53:03.009Z,7.70
2019-03-15T08:54:10.205Z,7.70
2019-03-15T08:55:17.430Z,7.70
2019-03-15T08:56:24.641Z,7.70
2019-03-15T08:57:31.844Z,7.70
2019-03-15T08:58:39.067Z,7.70
2019-03-15T08:59:55.515Z,7.70
2019-03-15T09:00:55.152Z,7.70
2019-03-15T09:02:02.367Z,7.70
2019-03-15T09:03:09.573Z,7.70
2019-03-15T09:04:16.799Z,7.70
2019-03-15T09:05:24.026Z,7.70
2019-03-15T09:06:31.236Z,7.70
2019-03-15T09:07:39.438Z,7.70
2019-03-15T09:08:47.623Z,7.70
2019-03-15T09:09:54.849Z,7.70
2019-03-15T09:11:02.046Z,7.70
2019-03-15T09:12:09.286Z,7.70
2019-03-15T09:13:16.513Z,7.70
2019-03-15T09:14:23.754Z,7.70
2019-03-15T09:15:31.090Z,7.70
2019-03-15T09:16:38.313Z,7.70
2019-03-15T09:17:45.530Z,7.70
2019-03-15T09:18:55.340Z,7.70
2019-03-15T09:20:01.820Z,7.70
2019-03-15T09:21:09.119Z,7.70
2019-03-15T09:22:17.321Z,7.70
2019-03-15T09:23:24.549Z,7.70
2019-03-15T09:24:31.759Z,7.70
2019-03-15T09:25:39.014Z,7.70
2019-03-15T09:26:46.271Z,7.70
2019-03-15T09:27:53.468Z,7.70
2019-03-15T09:29:00.677Z,7.70
2019-03-15T09:30:22.090Z,7.60
2019-03-15T09:31:17.711Z,7.60
2019-03-15T09:32:24.906Z,7.60
2019-03-15T09:33:32.161Z,7.60
2019-03-15T09:34:39.359Z,7.60
2019-03-15T09:35:46.600Z,7.60
2019-03-15T09:36:53.813Z,7.60
2019-03-15T09:38:01.024Z,7.60
2019-03-15T09:39:08.773Z,7.60
2019-03-15T09:40:16.111Z,7.50
2019-03-15T09:41:31.444Z,7.50
2019-03-15T09:42:32.220Z,7.50
2019-03-15T09:43:39.454Z,7.50
2019-03-15T09:44:46.659Z,7.50
2019-03-15T09:45:55.492Z,7.50
2019-03-15T09:47:02.847Z,7.50
2019-03-15T09:48:10.231Z,7.40
2019-03-15T09:49:17.456Z,7.40
2019-03-15T09:50:36.000Z,7.40
2019-03-15T09:51:33.604Z,7.40
2019-03-15T09:52:41.292Z,7.40
2019-03-15T09:53:48.504Z,7.40
2019-03-15T09:54:55.795Z,7.40
2019-03-15T09:56:03.709Z,7.40
2019-03-15T09:57:10.961Z,7.40
2019-03-15T09:58:18.156Z,7.40
2019-03-15T09:59:25.382Z,7.40
2019-03-15T10:00:32.973Z,7.40
2019-03-15T10:01:40.167Z,7.30
2019-03-15T10:02:47.590Z,7.40
2019-03-15T10:03:55.774Z,7.30
2019-03-15T10:05:10.749Z,7.40
2019-03-15T10:06:15.781Z,7.30
2019-03-15T10:07:21.023Z,7.30
2019-03-15T10:08:28.249Z,7.30
2019-03-15T10:09:45.656Z,7.30
2019-03-15T10:10:45.203Z,7.30
2019-03-15T10:11:55.197Z,7.30
2019-03-15T10:13:06.130Z,7.30
2019-03-15T10:14:10.664Z,7.30
2019-03-15T10:15:17.911Z,7.30
2019-03-15T10:16:26.196Z,7.30
2019-03-15T10:17:33.411Z,7.30
2019-03-15T10:18:40.698Z,7.30
2019-03-15T10:19:48.279Z,7.30
2019-03-15T10:20:55.512Z,7.30
2019-03-15T10:22:02.719Z,7.30
2019-03-15T10:23:10.097Z,7.30
2019-03-15T10:24:17.395Z,7.30
2019-03-15T10:25:24.667Z,7.30
2019-03-15T10:26:31.984Z,7.30
2019-03-15T10:27:39.223Z,7.30
2019-03-15T10:28:46.419Z,7.30
2019-03-15T10:29:53.615Z,7.30
2019-03-15T10:31:00.861Z,7.30
2019-03-15T10:32:08.097Z,7.20
2019-03-15T10:33:15.340Z,7.20
2019-03-15T10:34:22.552Z,7.20
2019-03-15T10:35:29.804Z,7.20
2019-03-15T10:36:37.034Z,7.20
2019-03-15T10:37:44.227Z,7.20
2019-03-15T10:38:53.453Z,7.20
2019-03-15T10:40:01.216Z,7.20
2019-03-15T10:41:08.623Z,7.20
2019-03-15T10:42:18.683Z,7.20
2019-03-15T10:43:27.739Z,7.20
2019-03-15T10:44:34.969Z,7.20
2019-03-15T10:45:42.265Z,7.20
2019-03-15T10:46:49.449Z,7.20
2019-03-15T10:47:56.930Z,7.20
2019-03-15T10:49:04.588Z,7.20
2019-03-15T10:50:13.168Z,7.20
2019-03-15T10:51:20.421Z,7.30
2019-03-15T10:52:29.093Z,7.20
2019-03-15T10:53:36.315Z,7.30
2019-03-15T10:54:43.527Z,7.30
2019-03-15T10:56:00.005Z,7.30
2019-03-15T10:56:59.659Z,7.30
2019-03-15T10:58:06.989Z,7.30
2019-03-15T10:59:14.207Z,7.30
2019-03-15T11:00:21.501Z,7.30
2019-03-15T11:01:28.699Z,7.40
2019-03-15T11:02:36.014Z,7.40
2019-03-15T11:03:43.225Z,7.40
2019-03-15T11:04:51.307Z,7.40
2019-03-15T11:05:58.817Z,7.40
2019-03-15T11:07:06.014Z,7.50
2019-03-15T11:08:13.210Z,7.40
2019-03-15T11:09:20.424Z,7.40
2019-03-15T11:10:27.662Z,7.50
2019-03-15T11:11:34.889Z,7.50
2019-03-15T11:12:42.106Z,7.50
2019-03-15T11:13:49.428Z,7.50
2019-03-15T11:14:56.614Z,7.50
2019-03-15T11:16:03.749Z,7.50
2019-03-15T11:17:10.960Z,7.60
2019-03-15T11:18:18.155Z,7.60
2019-03-15T11:19:25.383Z,7.60
2019-03-15T11:20:32.640Z,7.60
2019-03-15T11:21:39.864Z,7.70
2019-03-15T11:22:47.090Z,7.70
2019-03-15T11:23:54.303Z,7.70
2019-03-15T11:25:01.529Z,7.70
2019-03-15T11:26:13.586Z,7.70
2019-03-15T11:27:17.646Z,7.70
2019-03-15T11:28:24.840Z,7.70
2019-03-15T11:29:32.103Z,7.80
2019-03-15T11:30:39.322Z,7.80
2019-03-15T11:31:46.534Z,7.80
2019-03-15T11:32:53.744Z,7.80
2019-03-15T11:34:00.953Z,7.80
2019-03-15T11:35:08.870Z,7.80
2019-03-15T11:36:16.102Z,7.80
2019-03-15T11:37:23.338Z,7.90
2019-03-15T11:38:30.579Z,7.90
2019-03-15T11:39:37.775Z,7.90
2019-03-15T11:40:45.001Z,7.90
2019-03-15T11:41:52.242Z,7.90
2019-03-15T11:42:59.543Z,7.90
2019-03-15T11:44:06.754Z,7.90
2019-03-15T11:45:13.984Z,7.90
2019-03-15T11:46:21.238Z,7.90
2019-03-15T11:47:28.450Z,8.00
2019-03-15T11:48:35.658Z,8.00
2019-03-15T11:49:42.887Z,8.00
2019-03-15T11:50:50.113Z,8.00
2019-03-15T11:51:57.337Z,8.00
2019-03-15T11:53:04.562Z,8.00
2019-03-15T11:54:11.761Z,8.00
2019-03-15T11:55:18.969Z,8.10
2019-03-15T11:56:27.238Z,8.10
2019-03-15T11:57:34.652Z,8.10
2019-03-15T11:58:41.953Z,8.10
2019-03-15T11:59:49.300Z,8.10
2019-03-15T12:00:56.569Z,8.10
2019-03-15T12:02:04.607Z,8.20
2019-03-15T12:03:11.877Z,8.20
2019-03-15T12:04:19.079Z,8.20
2019-03-15T12:05:26.329Z,8.20
2019-03-15T12:06:33.542Z,8.20
2019-03-15T12:07:40.752Z,8.20
2019-03-15T12:08:47.963Z,8.20
2019-03-15T12:09:55.174Z,8.30
2019-03-15T12:11:02.437Z,8.30
2019-03-15T12:12:09.610Z,8.30
2019-03-15T12:13:16.822Z,8.30
2019-03-15T12:14:24.034Z,8.40
2019-03-15T12:15:31.245Z,8.40
2019-03-15T12:16:38.486Z,8.40
2019-03-15T12:17:45.687Z,8.40
2019-03-15T12:18:52.938Z,8.50
2019-03-15T12:20:00.414Z,8.50
2019-03-15T12:21:07.659Z,8.50
2019-03-15T12:22:14.901Z,8.50
2019-03-15T12:23:22.156Z,8.60
2019-03-15T12:24:29.457Z,8.60
2019-03-15T12:25:36.684Z,8.60
2019-03-15T12:26:43.938Z,8.70
2019-03-15T12:27:51.150Z,8.70
2019-03-15T12:28:58.361Z,8.70
2019-03-15T12:30:06.579Z,8.70
2019-03-15T12:31:13.824Z,8.80
2019-03-15T12:32:23.688Z,8.80
2019-03-15T12:33:29.955Z,8.90
2019-03-15T12:34:37.182Z,8.90
2019-03-15T12:35:44.420Z,8.90
2019-03-15T12:36:51.618Z,9.00
2019-03-15T12:37:58.845Z,9.00
2019-03-15T12:39:08.032Z,9.00
2019-03-15T12:40:15.636Z,9.00
2019-03-15T12:41:32.166Z,9.10
2019-03-15T12:42:39.376Z,9.10
2019-03-15T12:43:46.601Z,9.10
2019-03-15T12:44:53.807Z,9.20
2019-03-15T12:46:01.038Z,9.20
2019-03-15T12:47:08.981Z,9.20
2019-03-15T12:48:16.195Z,9.30
2019-03-15T12:49:25.643Z,9.30
2019-03-15T12:50:33.450Z,9.30
2019-03-15T12:51:40.662Z,9.30
2019-03-15T12:52:48.788Z,9.40
2019-03-15T12:53:56.284Z,9.40
2019-03-15T12:55:03.574Z,9.40
2019-03-15T12:56:11.207Z,9.50
2019-03-15T12:57:18.651Z,9.50
2019-03-15T12:58:25.854Z,9.50
2019-03-15T12:59:33.089Z,9.60
2019-03-15T13:00:40.330Z,9.60
2019-03-15T13:01:47.541Z,9.60
2019-03-15T13:02:54.752Z,9.60
2019-03-15T13:04:01.967Z,9.70
2019-03-15T13:05:09.204Z,9.70
2019-03-15T13:06:16.415Z,9.80
2019-03-15T13:07:23.657Z,9.70
2019-03-15T13:08:30.867Z,9.80
2019-03-15T13:09:38.079Z,9.80
2019-03-15T13:10:45.274Z,9.80
2019-03-15T13:11:53.476Z,9.90
2019-03-15T13:13:01.766Z,9.90
2019-03-15T13:14:08.964Z,9.90
2019-03-15T13:15:16.372Z,9.90
2019-03-15T13:16:23.640Z,10.00
2019-03-15T13:17:30.882Z,10.00
2019-03-15T13:18:38.111Z,10.00
2019-03-15T13:19:54.585Z,10.00
2019-03-15T13:20:54.240Z,10.00
2019-03-15T13:22:01.451Z,10.10
2019-03-15T13:23:08.723Z,10.10
2019-03-15T13:24:15.982Z,10.10
2019-03-15T13:25:23.206Z,10.10
2019-03-15T13:26:30.431Z,10.10
2019-03-15T13:27:37.626Z,10.20
2019-03-15T13:28:44.838Z,10.20
2019-03-15T13:29:53.174Z,10.20
2019-03-15T13:31:00.400Z,10.20
2019-03-15T13:32:07.717Z,10.30
2019-03-15T13:33:20.347Z,10.30
2019-03-15T13:34:24.045Z,10.30
2019-03-15T13:35:32.350Z,10.30
2019-03-15T13:36:39.575Z,10.30
2019-03-15T13:37:46.802Z,10.40
2019-03-15T13:38:54.027Z,10.40
2019-03-15T13:40:01.275Z,10.40
2019-03-15T13:41:08.557Z,10.40
2019-03-15T13:42:15.811Z,10.40
2019-03-15T13:43:23.037Z,10.40
2019-03-15T13:44:30.324Z,10.50
2019-03-15T13:45:37.534Z,10.50
2019-03-15T13:46:44.775Z,10.50
2019-03-15T13:47:51.992Z,10.50
2019-03-15T13:48:59.197Z,10.50
2019-03-15T13:50:07.248Z,10.60
2019-03-15T13:51:14.453Z,10.50
2019-03-15T13:52:21.670Z,10.60
2019-03-15T13:53:28.929Z,10.60
2019-03-15T13:54:36.126Z,10.60
2019-03-15T13:55:43.333Z,10.60
2019-03-15T13:56:50.545Z,10.70
2019-03-15T13:57:57.846Z,10.70
2019-03-15T13:59:05.086Z,10.70
2019-03-15T14:00:13.712Z,10.70
2019-03-15T14:01:20.937Z,10.70
2019-03-15T14:02:28.415Z,10.70
2019-03-15T14:03:35.671Z,10.80
2019-03-15T14:04:42.896Z,10.80
2019-03-15T14:05:50.109Z,10.80
2019-03-15T14:06:57.395Z,10.80
2019-03-15T14:08:11.652Z,10.80
2019-03-15T14:09:13.615Z,10.80
2019-03-15T14:10:20.863Z,10.80
2019-03-15T14:11:28.097Z,10.80
2019-03-15T14:12:35.323Z,10.80
2019-03-15T14:13:44.414Z,10.90
2019-03-15T14:14:51.636Z,10.90
2019-03-15T14:16:01.476Z,10.90
2019-03-15T14:17:07.785Z,10.90
2019-03-15T14:18:15.009Z,10.90
2019-03-15T14:19:22.220Z,10.90
2019-03-15T14:20:29.491Z,10.90
2019-03-15T14:21:38.180Z,10.90
2019-03-15T14:22:45.414Z,10.90
2019-03-15T14:23:52.655Z,10.90
2019-03-15T14:24:59.891Z,11.00
2019-03-15T14:26:07.172Z,11.00
2019-03-15T14:27:14.381Z,10.90
2019-03-15T14:28:21.635Z,11.00
2019-03-15T14:29:28.876Z,11.00
2019-03-15T14:30:36.119Z,11.00
2019-03-15T14:31:43.346Z,11.00
2019-03-15T14:32:50.735Z,11.00
2019-03-15T14:33:58.232Z,11.00
2019-03-15T14:35:05.576Z,11.00
2019-03-15T14:36:12.775Z,11.10
2019-03-15T14:37:20.318Z,11.10
2019-03-15T14:38:27.758Z,11.10
2019-03-15T14:39:35.051Z,11.00
2019-03-15T14:40:42.265Z,11.10
2019-03-15T14:41:50.868Z,11.10
2019-03-15T14:42:58.310Z,11.10
2019-03-15T14:44:06.077Z,11.10
2019-03-15T14:45:14.414Z,11.10
2019-03-15T14:46:21.618Z,11.10
2019-03-15T14:47:28.846Z,11.10
2019-03-15T14:48:36.071Z,11.10
2019-03-15T14:49:43.294Z,11.10
2019-03-15T14:50:50.535Z,11.10
2019-03-15T14:51:59.274Z,11.10
2019-03-15T14:53:06.773Z,11.10
2019-03-15T14:54:14.028Z,11.10